createdAt,value
2023-04-27T00:00:05.079Z,5.33
2023-04-27T00:01:15.178Z,5.39
2023-04-27T00:02:16.933Z,5.39
2023-04-27T00:03:18.900Z,5.37
2023-04-27T00:04:20.996Z,5.33
2023-04-27T00:05:23.043Z,5.31
2023-04-27T00:06:24.690Z,5.26
2023-04-27T00:07:26.271Z,5.27
2023-04-27T00:08:28.064Z,5.22
2023-04-27T00:09:29.692Z,5.14
2023-04-27T00:10:31.488Z,5.12
2023-04-27T00:11:33.247Z,5.09
2023-04-27T00:12:35.165Z,5.04
2023-04-27T00:13:36.758Z,5.01
2023-04-27T00:14:38.360Z,5.00
2023-04-27T00:15:39.971Z,5.02
2023-04-27T00:16:41.654Z,5.03
2023-04-27T00:17:43.322Z,4.99
2023-04-27T00:18:44.980Z,5.02
2023-04-27T00:19:46.918Z,5.17
2023-04-27T00:20:48.496Z,5.18
2023-04-27T00:21:50.085Z,5.13
2023-04-27T00:22:51.793Z,5.12
2023-04-27T00:23:54.418Z,5.02
2023-04-27T00:24:56.022Z,4.96
2023-04-27T00:25:57.596Z,4.91
2023-04-27T00:26:59.181Z,4.90
2023-04-27T00:28:00.778Z,4.91
2023-04-27T00:29:02.364Z,4.86
2023-04-27T00:30:04.947Z,4.96
2023-04-27T00:31:07.750Z,4.97
2023-04-27T00:32:12.376Z,4.96
2023-04-27T00:33:14.135Z,4.95
2023-04-27T00:34:15.754Z,4.92
2023-04-27T00:35:17.508Z,4.91
2023-04-27T00:36:19.083Z,4.97
2023-04-27T00:37:22.920Z,4.93
2023-04-27T00:38:24.579Z,4.96
2023-04-27T00:39:26.196Z,4.94
2023-04-27T00:40:27.794Z,4.95
2023-04-27T00:41:29.673Z,5.00
2023-04-27T00:42:31.289Z,4.98
2023-04-27T00:43:40.970Z,4.98
2023-04-27T00:44:43.135Z,4.96
2023-04-27T00:45:44.711Z,4.95
2023-04-27T00:46:47.441Z,4.93
2023-04-27T00:47:49.733Z,4.93
2023-04-27T00:48:52.785Z,4.86
2023-04-27T00:49:54.460Z,4.85
2023-04-27T00:50:56.049Z,4.85
2023-04-27T00:51:57.873Z,4.88
2023-04-27T00:52:59.582Z,4.96
2023-04-27T00:54:01.630Z,4.98
2023-04-27T00:55:05.979Z,4.97
2023-04-27T00:56:07.866Z,4.92
2023-04-27T00:57:09.599Z,4.93
2023-04-27T00:58:11.167Z,4.94
2023-04-27T00:59:13.085Z,4.98
2023-04-27T01:00:15.061Z,4.98
2023-04-27T01:01:16.815Z,4.95
2023-04-27T01:02:18.729Z,4.96
2023-04-27T01:03:21.099Z,4.97
2023-04-27T01:04:23.020Z,4.91
2023-04-27T01:05:26.367Z,4.95
2023-04-27T01:06:28.214Z,4.97
2023-04-27T01:07:29.927Z,4.96
2023-04-27T01:08:33.053Z,4.96
2023-04-27T01:09:37.200Z,4.90
2023-04-27T01:10:38.862Z,4.85
2023-04-27T01:11:40.687Z,4.81
2023-04-27T01:12:42.379Z,4.83
2023-04-27T01:13:44.662Z,4.83
2023-04-27T01:14:46.328Z,4.85
2023-04-27T01:15:48.035Z,4.86
2023-04-27T01:16:49.689Z,4.83
2023-04-27T01:17:58.490Z,4.83
2023-04-27T01:19:00.216Z,4.87
2023-04-27T01:20:02.453Z,4.92
2023-04-27T01:21:04.249Z,4.91
2023-04-27T01:22:06.777Z,4.97
2023-04-27T01:23:08.350Z,4.87
2023-04-27T01:24:10.918Z,4.58
2023-04-27T01:25:12.491Z,4.44
2023-04-27T01:26:14.109Z,4.47
2023-04-27T01:27:16.443Z,4.41
2023-04-27T01:28:18.456Z,4.44
2023-04-27T01:29:20.473Z,4.41
2023-04-27T01:30:22.119Z,4.40
2023-04-27T01:31:23.754Z,4.44
2023-04-27T01:32:25.540Z,4.50
2023-04-27T01:33:27.132Z,4.51
2023-04-27T01:34:28.712Z,4.54
2023-04-27T01:35:30.295Z,4.57
2023-04-27T01:36:34.656Z,4.57
2023-04-27T01:37:36.442Z,4.56
2023-04-27T01:38:38.045Z,4.55
2023-04-27T01:39:39.712Z,4.49
2023-04-27T01:40:43.164Z,4.48
2023-04-27T01:41:44.791Z,4.47
2023-04-27T01:42:46.516Z,4.48
2023-04-27T01:43:48.130Z,4.52
2023-04-27T01:44:49.791Z,4.62
2023-04-27T01:45:51.357Z,4.63
2023-04-27T01:46:52.979Z,4.55
2023-04-27T01:47:54.622Z,4.54
2023-04-27T01:48:56.286Z,4.55
2023-04-27T01:49:58.092Z,4.58
2023-04-27T01:50:59.689Z,4.64
2023-04-27T01:52:02.020Z,4.67
2023-04-27T01:53:03.652Z,4.68
2023-04-27T01:54:05.312Z,4.67
2023-04-27T01:55:07.493Z,4.69
2023-04-27T01:56:09.166Z,4.64
2023-04-27T01:57:10.752Z,4.71
2023-04-27T01:58:12.352Z,4.73
2023-04-27T01:59:15.694Z,4.63
2023-04-27T02:00:17.811Z,4.61
2023-04-27T02:01:27.398Z,4.66
2023-04-27T02:02:29.117Z,4.63
2023-04-27T02:03:30.987Z,4.65
2023-04-27T02:04:32.901Z,4.64
2023-04-27T02:05:34.623Z,4.58
2023-04-27T02:06:36.435Z,4.55
2023-04-27T02:07:38.073Z,4.54
2023-04-27T02:08:39.747Z,4.44
2023-04-27T02:09:43.344Z,4.45
2023-04-27T02:10:47.231Z,4.52
2023-04-27T02:11:48.853Z,4.54
2023-04-27T02:12:50.507Z,4.51
2023-04-27T02:13:52.090Z,4.46
2023-04-27T02:14:54.003Z,4.46
2023-04-27T02:15:55.627Z,4.45
2023-04-27T02:16:57.232Z,4.44
2023-04-27T02:17:58.903Z,4.45
2023-04-27T02:19:00.767Z,4.45
2023-04-27T02:20:02.400Z,4.39
2023-04-27T02:21:09.208Z,4.38
2023-04-27T02:22:11.535Z,4.35
2023-04-27T02:23:13.255Z,4.35
2023-04-27T02:24:17.166Z,4.38
2023-04-27T02:25:20.324Z,4.42
2023-04-27T02:26:22.998Z,4.38
2023-04-27T02:27:24.665Z,4.38
2023-04-27T02:28:26.738Z,4.38
2023-04-27T02:29:31.584Z,4.41
2023-04-27T02:30:33.623Z,4.42
2023-04-27T02:31:35.374Z,4.44
2023-04-27T02:32:37.485Z,4.51
2023-04-27T02:33:39.774Z,4.44
2023-04-27T02:34:42.178Z,4.49
2023-04-27T02:35:43.789Z,4.57
2023-04-27T02:36:45.393Z,4.48
2023-04-27T02:37:47.056Z,4.40
2023-04-27T02:38:50.120Z,4.37
2023-04-27T02:39:51.720Z,4.44
2023-04-27T02:40:54.394Z,4.49
2023-04-27T02:41:56.107Z,4.49
2023-04-27T02:42:57.745Z,4.47
2023-04-27T02:43:59.312Z,4.44
2023-04-27T02:45:01.115Z,4.38
2023-04-27T02:46:03.550Z,4.25
2023-04-27T02:47:05.988Z,4.26
2023-04-27T02:48:07.668Z,4.30
2023-04-27T02:49:09.317Z,4.31
2023-04-27T02:50:10.987Z,4.29
2023-04-27T02:51:12.814Z,4.30
2023-04-27T02:52:14.411Z,4.33
2023-04-27T02:53:15.995Z,4.32
2023-04-27T02:54:17.532Z,4.28
2023-04-27T02:55:19.356Z,4.30
2023-04-27T02:56:21.369Z,4.29
2023-04-27T02:57:25.302Z,4.31
2023-04-27T02:58:27.094Z,4.35
2023-04-27T02:59:28.682Z,4.35
2023-04-27T03:00:30.616Z,4.32
2023-04-27T03:01:32.462Z,4.33
2023-04-27T03:02:34.254Z,4.35
2023-04-27T03:03:36.142Z,4.34
2023-04-27T03:04:37.978Z,4.35
2023-04-27T03:05:39.572Z,4.31
2023-04-27T03:06:41.310Z,4.34
2023-04-27T03:07:43.071Z,4.37
2023-04-27T03:08:44.662Z,4.38
2023-04-27T03:09:46.242Z,4.39
2023-04-27T03:10:47.830Z,4.42
2023-04-27T03:11:49.444Z,4.46
2023-04-27T03:12:51.091Z,4.47
2023-04-27T03:13:52.939Z,4.52
2023-04-27T03:14:54.536Z,4.53
2023-04-27T03:15:56.186Z,4.48
2023-04-27T03:16:57.811Z,4.50
2023-04-27T03:17:59.924Z,4.49
2023-04-27T03:19:01.599Z,4.48
2023-04-27T03:20:06.037Z,4.50
2023-04-27T03:21:09.031Z,4.49
2023-04-27T03:22:10.657Z,4.54
2023-04-27T03:23:12.246Z,4.50
2023-04-27T03:24:13.869Z,4.54
2023-04-27T03:25:15.463Z,4.56
2023-04-27T03:26:17.112Z,4.54
2023-04-27T03:27:18.762Z,4.56
2023-04-27T03:28:20.371Z,4.63
2023-04-27T03:29:22.017Z,4.65
2023-04-27T03:30:23.678Z,4.61
2023-04-27T03:31:25.371Z,4.61
2023-04-27T03:32:27.024Z,4.66
2023-04-27T03:33:29.036Z,4.66
2023-04-27T03:34:30.936Z,4.69
2023-04-27T03:35:32.527Z,4.71
2023-04-27T03:36:34.129Z,4.73
2023-04-27T03:37:36.381Z,4.73
2023-04-27T03:38:38.091Z,4.75
2023-04-27T03:39:40.005Z,4.75
2023-04-27T03:40:43.105Z,4.72
2023-04-27T03:41:44.721Z,4.75
2023-04-27T03:42:46.910Z,4.81
2023-04-27T03:43:48.993Z,4.83
2023-04-27T03:44:52.038Z,4.85
2023-04-27T03:45:53.729Z,4.82
2023-04-27T03:46:55.293Z,4.84
2023-04-27T03:47:57.040Z,4.82
2023-04-27T03:48:58.762Z,4.80
2023-04-27T03:50:00.434Z,4.81
2023-04-27T03:51:02.428Z,4.80
2023-04-27T03:52:04.330Z,4.81
2023-04-27T03:53:05.976Z,4.82
2023-04-27T03:54:07.699Z,4.81
2023-04-27T03:55:09.611Z,4.84
2023-04-27T03:56:11.204Z,4.85
2023-04-27T03:57:12.877Z,4.85
2023-04-27T03:58:14.755Z,4.88
2023-04-27T03:59:35.267Z,4.90
2023-04-27T04:00:39.571Z,4.92
2023-04-27T04:01:41.313Z,4.96
2023-04-27T04:02:43.033Z,4.95
2023-04-27T04:03:45.559Z,4.95
2023-04-27T04:04:47.449Z,4.96
2023-04-27T04:05:49.427Z,5.02
2023-04-27T04:06:51.233Z,5.05
2023-04-27T04:07:52.776Z,5.06
2023-04-27T04:08:54.640Z,5.05
2023-04-27T04:09:56.619Z,5.06
2023-04-27T04:10:58.264Z,5.09
2023-04-27T04:12:00.157Z,5.11
2023-04-27T04:13:01.733Z,5.10
2023-04-27T04:14:03.401Z,5.07
2023-04-27T04:15:05.510Z,5.05
2023-04-27T04:16:09.454Z,5.04
2023-04-27T04:17:11.160Z,5.07
2023-04-27T04:18:15.190Z,5.06
2023-04-27T04:19:17.164Z,5.07
2023-04-27T04:20:19.043Z,5.12
2023-04-27T04:21:20.673Z,5.13
2023-04-27T04:22:22.989Z,5.17
2023-04-27T04:23:24.790Z,5.17
2023-04-27T04:24:29.902Z,5.15
2023-04-27T04:25:36.873Z,5.19
2023-04-27T04:26:38.572Z,5.19
2023-04-27T04:27:43.133Z,5.16
2023-04-27T04:28:47.479Z,5.12
2023-04-27T04:30:10.852Z,5.17
2023-04-27T04:31:18.274Z,5.16
2023-04-27T04:32:20.017Z,5.20
2023-04-27T04:33:27.880Z,5.24
2023-04-27T04:34:30.781Z,5.25
2023-04-27T04:35:32.823Z,5.26
2023-04-27T04:36:34.542Z,5.31
2023-04-27T04:37:36.163Z,5.35
2023-04-27T04:38:38.090Z,5.38
2023-04-27T04:39:39.993Z,5.39
2023-04-27T04:40:44.521Z,5.42
2023-04-27T04:41:47.616Z,5.39
2023-04-27T04:42:49.262Z,5.37
2023-04-27T04:43:50.992Z,5.33
2023-04-27T04:44:52.883Z,5.35
2023-04-27T04:45:54.521Z,5.40
2023-04-27T04:46:56.201Z,5.47
2023-04-27T04:48:01.035Z,5.51
2023-04-27T04:49:03.070Z,5.55
2023-04-27T04:50:05.037Z,5.47
2023-04-27T04:51:06.763Z,5.47
2023-04-27T04:52:09.209Z,5.49
2023-04-27T04:53:12.938Z,5.53
2023-04-27T04:54:14.658Z,5.56
2023-04-27T04:55:16.300Z,5.62
2023-04-27T04:56:17.895Z,5.65
2023-04-27T04:57:19.550Z,5.67
2023-04-27T04:58:21.348Z,5.66
2023-04-27T04:59:22.993Z,5.66
2023-04-27T05:00:24.636Z,5.71
2023-04-27T05:01:26.259Z,5.74
2023-04-27T05:02:27.973Z,5.77
2023-04-27T05:03:29.794Z,5.79
2023-04-27T05:04:31.550Z,5.83
2023-04-27T05:05:33.146Z,5.90
2023-04-27T05:06:34.701Z,5.95
2023-04-27T05:07:36.384Z,6.01
2023-04-27T05:08:37.987Z,6.02
2023-04-27T05:09:39.663Z,6.06
2023-04-27T05:10:41.236Z,6.04
2023-04-27T05:11:42.875Z,6.07
2023-04-27T05:12:44.478Z,6.10
2023-04-27T05:13:46.080Z,6.09
2023-04-27T05:14:47.676Z,6.09
2023-04-27T05:15:49.253Z,6.09
2023-04-27T05:16:50.853Z,6.16
2023-04-27T05:17:52.439Z,6.21
2023-04-27T05:18:53.973Z,6.26
2023-04-27T05:19:55.609Z,6.31
2023-04-27T05:20:57.264Z,6.36
2023-04-27T05:22:01.619Z,6.40
2023-04-27T05:23:03.413Z,6.41
2023-04-27T05:24:05.184Z,6.45
2023-04-27T05:25:07.118Z,6.49
2023-04-27T05:26:16.012Z,6.53
2023-04-27T05:27:17.589Z,6.53
2023-04-27T05:28:19.165Z,6.55
2023-04-27T05:29:21.811Z,6.55
2023-04-27T05:30:23.420Z,6.60
2023-04-27T05:31:25.083Z,6.64
2023-04-27T05:32:26.714Z,6.67
2023-04-27T05:33:28.349Z,6.70
2023-04-27T05:34:29.941Z,6.76
2023-04-27T05:35:32.391Z,6.82
2023-04-27T05:36:33.990Z,6.87
2023-04-27T05:37:35.630Z,6.90
2023-04-27T05:38:37.247Z,6.94
2023-04-27T05:39:39.083Z,6.99
2023-04-27T05:40:40.636Z,7.05
2023-04-27T05:41:42.264Z,7.05
2023-04-27T05:42:46.340Z,7.08
2023-04-27T05:43:47.880Z,7.12
2023-04-27T05:44:49.484Z,7.18
2023-04-27T05:45:51.257Z,7.21
2023-04-27T05:46:52.834Z,7.25
2023-04-27T05:47:54.483Z,7.26
2023-04-27T05:48:56.184Z,7.21
2023-04-27T05:49:57.799Z,7.19
2023-04-27T05:51:03.427Z,7.21
2023-04-27T05:52:04.996Z,7.25
2023-04-27T05:53:06.616Z,7.22
2023-04-27T05:54:08.538Z,7.16
2023-04-27T05:55:10.131Z,7.14
2023-04-27T05:56:11.740Z,7.14
2023-04-27T05:57:13.330Z,7.08
2023-04-27T05:58:15.142Z,7.11
2023-04-27T05:59:17.014Z,7.17
2023-04-27T06:00:18.753Z,7.25
2023-04-27T06:01:20.333Z,7.36
2023-04-27T06:02:22.764Z,7.43
2023-04-27T06:03:24.989Z,7.52
2023-04-27T06:04:27.083Z,7.63
2023-04-27T06:05:28.988Z,7.67
2023-04-27T06:06:34.311Z,7.68
2023-04-27T06:07:35.872Z,7.66
2023-04-27T06:08:37.666Z,7.71
2023-04-27T06:09:39.488Z,7.77
2023-04-27T06:10:41.080Z,7.80
2023-04-27T06:11:42.689Z,7.86
2023-04-27T06:12:46.305Z,7.93
2023-04-27T06:13:47.981Z,7.94
2023-04-27T06:14:49.536Z,7.93
2023-04-27T06:15:51.166Z,7.91
2023-04-27T06:16:55.414Z,8.00
2023-04-27T06:17:57.038Z,8.08
2023-04-27T06:18:58.692Z,8.20
2023-04-27T06:20:00.244Z,8.22
2023-04-27T06:21:02.333Z,8.25
2023-04-27T06:22:03.986Z,8.24
2023-04-27T06:23:05.650Z,8.20
2023-04-27T06:24:07.437Z,8.25
2023-04-27T06:25:09.208Z,8.35
2023-04-27T06:26:10.750Z,8.34
2023-04-27T06:27:12.331Z,8.34
2023-04-27T06:28:13.910Z,8.37
2023-04-27T06:29:15.812Z,8.46
2023-04-27T06:30:17.502Z,8.61
2023-04-27T06:31:19.103Z,8.73
2023-04-27T06:32:20.748Z,8.74
2023-04-27T06:33:22.462Z,8.73
2023-04-27T06:34:24.030Z,8.84
2023-04-27T06:35:25.718Z,8.98
2023-04-27T06:36:27.281Z,9.13
2023-04-27T06:37:28.835Z,9.17
2023-04-27T06:38:30.437Z,9.19
2023-04-27T06:39:32.024Z,9.30
2023-04-27T06:40:33.600Z,9.30
2023-04-27T06:41:35.453Z,9.36
2023-04-27T06:42:37.576Z,9.47
2023-04-27T06:43:39.229Z,9.59
2023-04-27T06:44:41.320Z,9.68
2023-04-27T06:45:43.030Z,9.77
2023-04-27T06:46:44.646Z,9.80
2023-04-27T06:47:46.310Z,9.86
2023-04-27T06:48:47.906Z,9.92
2023-04-27T06:49:49.905Z,9.98
2023-04-27T06:50:51.654Z,10.09
2023-04-27T06:51:53.285Z,10.22
2023-04-27T06:52:54.828Z,10.38
2023-04-27T06:53:56.390Z,10.51
2023-04-27T06:54:57.954Z,10.48
2023-04-27T06:56:00.024Z,10.54
2023-04-27T06:57:01.607Z,10.66
2023-04-27T06:58:03.466Z,10.82
2023-04-27T06:59:05.168Z,10.72
2023-04-27T07:00:07.398Z,10.52
2023-04-27T07:01:09.083Z,10.47
2023-04-27T07:02:10.687Z,10.62
2023-04-27T07:03:12.406Z,10.79
2023-04-27T07:04:14.184Z,10.94
2023-04-27T07:05:15.801Z,11.03
2023-04-27T07:06:17.347Z,11.17
2023-04-27T07:07:18.886Z,11.28
2023-04-27T07:08:20.479Z,11.28
2023-04-27T07:10:27.972Z,11.18
2023-04-27T07:11:29.881Z,11.13
2023-04-27T07:12:31.516Z,11.25
2023-04-27T07:13:33.050Z,11.41
2023-04-27T07:14:34.699Z,11.42
2023-04-27T07:15:36.302Z,11.54
2023-04-27T07:16:38.045Z,11.67
2023-04-27T07:17:39.713Z,11.79
2023-04-27T07:18:43.228Z,11.86
2023-04-27T07:19:45.196Z,11.90
2023-04-27T07:20:46.795Z,11.86
2023-04-27T07:21:48.356Z,11.89
2023-04-27T07:22:49.915Z,11.93
2023-04-27T07:23:52.191Z,12.01
2023-04-27T07:24:55.322Z,12.07
2023-04-27T07:25:57.714Z,12.08
2023-04-27T07:26:59.309Z,12.14
2023-04-27T07:28:00.885Z,12.28
2023-04-27T07:29:11.096Z,12.34
2023-04-27T07:30:16.373Z,12.40
2023-04-27T07:31:18.003Z,12.49
2023-04-27T07:32:19.653Z,12.59
2023-04-27T07:33:21.280Z,12.65
2023-04-27T07:34:23.077Z,12.72
2023-04-27T07:35:24.717Z,12.76
2023-04-27T07:36:26.354Z,12.82
2023-04-27T07:37:27.922Z,12.70
2023-04-27T07:38:29.605Z,12.73
2023-04-27T07:39:31.198Z,12.74
2023-04-27T07:40:32.882Z,12.79
2023-04-27T07:41:34.490Z,12.89
2023-04-27T07:42:37.581Z,12.89
2023-04-27T07:43:39.145Z,12.88
2023-04-27T07:44:40.898Z,12.93
2023-04-27T07:45:42.625Z,12.92
2023-04-27T07:46:44.392Z,12.92
2023-04-27T07:47:45.986Z,12.96
2023-04-27T07:48:47.633Z,12.88
2023-04-27T07:49:49.307Z,12.88
2023-04-27T07:50:51.261Z,12.93
2023-04-27T07:51:52.878Z,13.00
2023-04-27T07:52:54.458Z,13.12
2023-04-27T07:53:56.388Z,13.21
2023-04-27T07:54:57.990Z,13.23
2023-04-27T07:55:59.587Z,13.27
2023-04-27T07:57:01.185Z,13.26
2023-04-27T07:58:02.848Z,13.40
2023-04-27T07:59:04.480Z,13.50
2023-04-27T08:00:06.749Z,13.52
2023-04-27T08:01:14.273Z,13.50
2023-04-27T08:02:19.528Z,13.45
2023-04-27T08:03:22.107Z,13.39
2023-04-27T08:04:24.311Z,13.38
2023-04-27T08:05:26.551Z,13.23
2023-04-27T08:06:28.751Z,13.21
2023-04-27T08:07:31.136Z,13.16
2023-04-27T08:08:32.709Z,13.17
2023-04-27T08:09:34.249Z,13.13
2023-04-27T08:10:35.955Z,13.17
2023-04-27T08:11:37.508Z,13.14
2023-04-27T08:12:39.072Z,13.21
2023-04-27T08:13:40.664Z,13.23
2023-04-27T08:14:42.214Z,13.10
2023-04-27T08:15:43.745Z,13.15
2023-04-27T08:16:45.531Z,13.25
2023-04-27T08:17:47.208Z,13.23
2023-04-27T08:18:51.670Z,13.16
2023-04-27T08:19:53.276Z,13.06
2023-04-27T08:20:55.515Z,12.92
2023-04-27T08:21:57.204Z,12.80
2023-04-27T08:22:58.790Z,12.74
2023-04-27T08:24:00.333Z,12.71
2023-04-27T08:25:01.881Z,12.57
2023-04-27T08:26:03.543Z,12.56
2023-04-27T08:27:08.446Z,12.74
2023-04-27T08:28:10.020Z,12.88
2023-04-27T08:29:23.583Z,12.99
2023-04-27T08:30:28.344Z,13.04
2023-04-27T08:31:29.902Z,13.04
2023-04-27T08:32:31.585Z,12.94
2023-04-27T08:33:33.248Z,12.97
2023-04-27T08:34:35.125Z,13.02
2023-04-27T08:35:36.727Z,13.05
2023-04-27T08:36:38.280Z,12.89
2023-04-27T08:37:39.871Z,12.87
2023-04-27T08:38:41.419Z,12.84
2023-04-27T08:39:43.137Z,12.86
2023-04-27T08:40:45.145Z,12.90
2023-04-27T08:41:46.714Z,12.85
2023-04-27T08:42:59.017Z,12.63
2023-04-27T08:44:00.645Z,12.57
2023-04-27T08:45:02.272Z,12.55
2023-04-27T08:46:03.842Z,12.56
2023-04-27T08:47:05.410Z,12.59
2023-04-27T08:48:07.001Z,12.78
2023-04-27T08:49:08.580Z,12.90
2023-04-27T08:50:11.890Z,13.04
2023-04-27T08:51:15.211Z,13.01
2023-04-27T08:52:17.308Z,12.78
2023-04-27T08:53:22.829Z,12.71
2023-04-27T08:54:24.398Z,12.69
2023-04-27T08:55:25.949Z,12.50
2023-04-27T08:56:30.415Z,12.50
2023-04-27T08:57:32.044Z,12.61
2023-04-27T08:58:37.368Z,12.70
2023-04-27T08:59:42.468Z,12.54
2023-04-27T09:00:44.721Z,12.46
2023-04-27T09:01:47.669Z,12.26
2023-04-27T09:02:49.502Z,12.22
2023-04-27T09:03:58.640Z,12.11
2023-04-27T09:05:00.670Z,12.14
2023-04-27T09:06:06.443Z,12.16
2023-04-27T09:07:15.859Z,12.21
2023-04-27T09:08:17.448Z,12.18
2023-04-27T09:09:25.208Z,11.95
2023-04-27T09:10:26.938Z,11.77
2023-04-27T09:11:33.429Z,11.61
2023-04-27T09:12:35.001Z,11.55
2023-04-27T09:13:41.109Z,11.53
2023-04-27T09:14:43.267Z,11.45
2023-04-27T09:15:49.810Z,11.42
2023-04-27T09:16:58.476Z,11.48
2023-04-27T09:18:00.155Z,11.47
2023-04-27T09:19:01.808Z,11.53
2023-04-27T09:20:08.487Z,11.55
2023-04-27T09:21:10.428Z,11.66
2023-04-27T09:22:11.978Z,11.82
2023-04-27T09:23:33.082Z,11.93
2023-04-27T09:24:35.093Z,12.05
2023-04-27T09:25:36.654Z,12.17
2023-04-27T09:26:39.273Z,12.23
2023-04-27T09:27:44.099Z,12.15
2023-04-27T09:28:48.839Z,12.14
2023-04-27T09:29:50.444Z,12.12
2023-04-27T09:30:57.010Z,12.20
2023-04-27T09:31:58.712Z,12.33
2023-04-27T09:33:01.597Z,12.45
2023-04-27T09:34:03.550Z,12.57
2023-04-27T09:35:15.448Z,12.69
2023-04-27T09:36:17.042Z,12.80
2023-04-27T09:37:19.254Z,12.87
2023-04-27T09:38:22.140Z,12.93
2023-04-27T09:39:23.707Z,13.02
2023-04-27T09:40:27.662Z,13.05
2023-04-27T09:41:29.516Z,13.16
2023-04-27T09:42:31.799Z,13.24
2023-04-27T09:43:33.549Z,13.18
2023-04-27T09:44:35.252Z,13.15
2023-04-27T09:45:37.845Z,13.14
2023-04-27T09:46:40.628Z,12.90
2023-04-27T09:47:43.623Z,12.93
2023-04-27T09:48:45.193Z,13.04
2023-04-27T09:49:47.091Z,13.03
2023-04-27T09:50:50.217Z,13.09
2023-04-27T09:51:51.799Z,13.06
2023-04-27T09:52:53.336Z,12.95
2023-04-27T09:54:00.775Z,12.87
2023-04-27T09:55:04.840Z,12.60
2023-04-27T09:56:16.533Z,12.36
2023-04-27T09:57:28.149Z,12.33
2023-04-27T09:58:44.462Z,12.28
2023-04-27T10:00:01.712Z,12.14
2023-04-27T10:01:28.577Z,12.00
2023-04-27T10:02:52.536Z,12.05
2023-04-27T10:04:01.174Z,12.09
2023-04-27T10:05:20.054Z,12.13
2023-04-27T10:06:40.240Z,11.98
2023-04-27T10:07:42.276Z,11.78
2023-04-27T10:08:43.868Z,11.78
2023-04-27T10:09:47.453Z,11.75
2023-04-27T10:10:53.415Z,11.63
2023-04-27T10:11:55.348Z,11.57
2023-04-27T10:13:00.601Z,11.71
2023-04-27T10:14:06.800Z,11.90
2023-04-27T10:15:16.185Z,11.91
2023-04-27T10:16:20.427Z,11.99
2023-04-27T10:17:33.328Z,12.01
2023-04-27T10:18:34.952Z,12.08
2023-04-27T10:19:37.244Z,12.14
2023-04-27T10:20:38.948Z,12.12
2023-04-27T10:21:57.947Z,12.00
2023-04-27T10:22:59.934Z,12.03
2023-04-27T10:24:08.211Z,12.11
2023-04-27T10:25:39.247Z,12.26
2023-04-27T10:26:46.905Z,12.39
2023-04-27T10:27:50.329Z,12.43
2023-04-27T10:28:58.607Z,12.60
2023-04-27T10:30:09.877Z,12.72
2023-04-27T10:31:11.563Z,12.82
2023-04-27T10:32:18.711Z,12.75
2023-04-27T10:33:22.936Z,12.89
2023-04-27T10:34:27.774Z,12.85
2023-04-27T10:35:40.624Z,12.86
2023-04-27T10:36:42.244Z,12.92
2023-04-27T10:37:44.330Z,13.08
2023-04-27T10:38:45.869Z,13.17
2023-04-27T10:39:49.138Z,13.23
2023-04-27T10:41:00.487Z,13.25
2023-04-27T10:42:02.135Z,13.25
2023-04-27T10:43:17.712Z,13.35
2023-04-27T10:44:26.303Z,13.51
2023-04-27T10:45:31.213Z,13.56
2023-04-27T10:46:35.287Z,13.53
2023-04-27T10:47:45.909Z,13.66
2023-04-27T10:48:47.812Z,13.83
2023-04-27T10:49:53.259Z,13.98
2023-04-27T10:50:56.759Z,14.07
2023-04-27T10:51:59.358Z,14.05
2023-04-27T10:53:03.102Z,14.07
2023-04-27T10:54:05.154Z,14.01
2023-04-27T10:55:16.324Z,13.94
2023-04-27T10:56:18.890Z,13.91
2023-04-27T10:57:20.485Z,13.96
2023-04-27T10:58:29.860Z,13.99
2023-04-27T10:59:48.679Z,13.99
2023-04-27T11:00:50.261Z,13.95
2023-04-27T11:01:51.818Z,13.91
2023-04-27T11:02:54.824Z,13.96
2023-04-27T11:03:57.472Z,14.02
2023-04-27T11:04:59.051Z,13.97
2023-04-27T11:06:05.805Z,14.00
2023-04-27T11:07:09.614Z,14.10
2023-04-27T11:08:13.833Z,14.26
2023-04-27T11:09:26.337Z,14.41
2023-04-27T11:10:27.884Z,14.45
2023-04-27T11:11:29.506Z,14.48
2023-04-27T11:12:32.116Z,14.56
2023-04-27T11:13:33.851Z,14.56
2023-04-27T11:14:35.856Z,14.62
2023-04-27T11:15:53.244Z,14.67
2023-04-27T11:16:54.882Z,14.70
2023-04-27T11:18:05.151Z,14.63
2023-04-27T11:19:06.947Z,14.59
2023-04-27T11:20:09.282Z,14.56
2023-04-27T11:21:15.780Z,14.53
2023-04-27T11:22:17.359Z,14.44
2023-04-27T11:23:30.686Z,14.42
2023-04-27T11:24:33.424Z,14.40
2023-04-27T11:25:35.382Z,14.47
2023-04-27T11:26:37.181Z,14.60
2023-04-27T11:27:40.261Z,14.73
2023-04-27T11:28:56.749Z,14.81
2023-04-27T11:29:58.317Z,14.94
2023-04-27T11:31:00.212Z,15.01
2023-04-27T11:32:01.972Z,14.98
2023-04-27T11:33:08.490Z,14.99
2023-04-27T11:34:16.373Z,14.92
2023-04-27T11:35:18.233Z,14.71
2023-04-27T11:36:21.414Z,14.66
2023-04-27T11:37:27.346Z,14.69
2023-04-27T11:38:35.018Z,14.62
2023-04-27T11:39:38.565Z,14.63
2023-04-27T11:40:40.146Z,14.64
2023-04-27T11:41:41.698Z,14.68
2023-04-27T11:42:43.432Z,14.73
2023-04-27T11:43:45.030Z,14.74
2023-04-27T11:44:57.108Z,14.39
2023-04-27T11:46:02.051Z,14.14
2023-04-27T11:47:03.677Z,14.03
2023-04-27T11:48:05.552Z,13.90
2023-04-27T11:49:08.050Z,13.86
2023-04-27T11:50:10.502Z,13.86
2023-04-27T11:51:12.108Z,13.93
2023-04-27T11:52:14.464Z,14.00
2023-04-27T11:53:18.683Z,13.98
2023-04-27T11:54:28.773Z,13.80
2023-04-27T11:55:30.340Z,13.79
2023-04-27T11:56:39.764Z,13.80
2023-04-27T11:57:44.168Z,13.86
2023-04-27T11:58:46.466Z,13.89
2023-04-27T11:59:48.180Z,13.88
2023-04-27T12:00:49.729Z,13.86
2023-04-27T12:01:51.563Z,13.73
2023-04-27T12:02:53.360Z,13.59
2023-04-27T12:03:55.424Z,13.54
2023-04-27T12:04:59.290Z,13.39
2023-04-27T12:06:16.198Z,13.28
2023-04-27T12:07:22.865Z,13.48
2023-04-27T12:08:24.677Z,13.67
2023-04-27T12:09:26.209Z,13.91
2023-04-27T12:10:27.824Z,14.08
2023-04-27T12:11:29.409Z,14.21
2023-04-27T12:12:30.960Z,14.34
2023-04-27T12:13:32.508Z,14.34
2023-04-27T12:14:34.401Z,14.46
2023-04-27T12:15:35.980Z,14.35
2023-04-27T12:16:37.625Z,14.30
2023-04-27T12:17:39.828Z,14.27
2023-04-27T12:18:41.384Z,14.15
2023-04-27T12:19:42.956Z,13.96
2023-04-27T12:20:44.529Z,13.96
2023-04-27T12:21:46.187Z,13.87
2023-04-27T12:22:47.718Z,13.93
2023-04-27T12:23:49.271Z,13.96
2023-04-27T12:24:51.196Z,14.00
2023-04-27T12:25:52.841Z,14.02
2023-04-27T12:26:54.671Z,14.13
2023-04-27T12:27:56.269Z,14.01
2023-04-27T12:28:57.913Z,14.05
2023-04-27T12:29:59.505Z,14.07
2023-04-27T12:31:05.055Z,14.07
2023-04-27T12:32:06.659Z,13.84
2023-04-27T12:33:08.385Z,13.61
2023-04-27T12:34:10.061Z,13.41
2023-04-27T12:35:11.711Z,13.18
2023-04-27T12:36:13.324Z,13.13
2023-04-27T12:37:14.907Z,13.02
2023-04-27T12:38:16.461Z,12.97
2023-04-27T12:39:20.112Z,12.93
2023-04-27T12:40:21.659Z,12.84
2023-04-27T12:41:23.270Z,12.86
2023-04-27T12:42:25.004Z,12.86
2023-04-27T12:43:26.572Z,12.84
2023-04-27T12:44:28.144Z,12.84
2023-04-27T12:45:29.706Z,12.83
2023-04-27T12:46:31.268Z,12.76
2023-04-27T12:47:53.946Z,12.80
2023-04-27T12:48:54.385Z,12.91
2023-04-27T12:49:55.972Z,12.99
2023-04-27T12:50:57.573Z,13.17
2023-04-27T12:51:59.160Z,13.33
2023-04-27T12:53:00.776Z,13.48
2023-04-27T12:54:06.095Z,13.64
2023-04-27T12:55:13.060Z,13.75
2023-04-27T12:56:22.947Z,13.80
2023-04-27T12:57:24.568Z,13.83
2023-04-27T12:58:26.118Z,13.92
2023-04-27T12:59:27.672Z,14.00
2023-04-27T13:00:29.291Z,13.99
2023-04-27T13:01:31.028Z,14.02
2023-04-27T13:02:32.738Z,14.01
2023-04-27T13:03:34.523Z,13.93
2023-04-27T13:04:36.320Z,13.86
2023-04-27T13:05:38.078Z,13.79
2023-04-27T13:06:39.587Z,13.66
2023-04-27T13:07:41.120Z,13.67
2023-04-27T13:08:42.862Z,13.65
2023-04-27T13:09:44.640Z,13.59
2023-04-27T13:10:46.216Z,13.54
2023-04-27T13:11:47.808Z,13.49
2023-04-27T13:12:49.566Z,13.47
2023-04-27T13:13:51.244Z,13.47
2023-04-27T13:14:52.778Z,13.35
2023-04-27T13:15:54.453Z,13.35
2023-04-27T13:16:56.031Z,13.38
2023-04-27T13:17:57.646Z,13.45
2023-04-27T13:18:59.196Z,13.56
2023-04-27T13:20:00.827Z,13.55
2023-04-27T13:21:03.786Z,13.57
2023-04-27T13:22:05.403Z,13.54
2023-04-27T13:23:07.186Z,13.47
2023-04-27T13:24:08.804Z,13.43
2023-04-27T13:25:10.346Z,13.42
2023-04-27T13:26:12.046Z,13.37
2023-04-27T13:27:14.829Z,13.35
2023-04-27T13:28:16.357Z,13.35
2023-04-27T13:29:17.902Z,13.39
2023-04-27T13:30:19.646Z,13.48
2023-04-27T13:31:21.271Z,13.47
2023-04-27T13:32:23.054Z,13.63
2023-04-27T13:33:24.768Z,13.75
2023-04-27T13:34:26.380Z,13.83
2023-04-27T13:35:27.941Z,13.93
2023-04-27T13:36:29.556Z,13.90
2023-04-27T13:37:31.407Z,13.88
2023-04-27T13:38:32.966Z,13.90
2023-04-27T13:39:34.526Z,14.00
2023-04-27T13:40:36.240Z,14.06
2023-04-27T13:41:37.883Z,14.03
2023-04-27T13:42:39.995Z,14.04
2023-04-27T13:43:41.534Z,14.03
2023-04-27T13:44:43.091Z,13.86